Time,TemperatureF,DewpointF,PressureIn,WindDirection,WindDirectionDegrees,WindSpeedMPH,WindSpeedGustMPH,Humidity,HourlyPrecipIn,Conditions,Clouds,dailyrainin,SoftwareType,DateUTC
2013-01-16 00:03:00,18.1,15.0,30.14,NNE,24,0.0,0.0,88,0.00,,,0.00,weatherlink.com 1.10,2013-01-16 06:03:00,
2013-01-16 00:19:00,18.1,15.0,30.14,NNE,24,0.0,0.0,89,0.00,,,0.00,weatherlink.com 1.10,2013-01-16 06:19:00,
2013-01-16 00:34:00,17.9,15.0,30.13,NNE,24,0.0,0.0,89,0.00,,,0.00,weatherlink.com 1.10,2013-01-16 06:34:00,
2013-01-16 00:49:00,18.1,16.0,30.12,NNE,24,0.0,0.0,90,0.00,,,0.00,weatherlink.com 1.10,2013-01-16 06:49:00,
2013-01-16 01:04:00,18.4,16.0,30.12,NNE,24,0.0,0.0,90,0.00,,,0.00,weatherlink.com 1.10,2013-01-16 07:04:00,
2013-01-16 01:19:00,18.4,16.0,30.11,NNE,24,0.0,0.0,89,0.00,,,0.00,weatherlink.com 1.10,2013-01-16 07:19:00,
2013-01-16 01:34:00,18.1,15.0,30.10,NNE,24,0.0,0.0,89,0.00,,,0.00,weatherlink.com 1.10,2013-01-16 07:34:00,
2013-01-16 01:49:00,17.6,15.0,30.11,NNE,24,0.0,0.0,89,0.00,,,0.00,weatherlink.com 1.10,2013-01-16 07:49:00,
2013-01-16 02:04:00,17.6,15.0,30.12,NNE,24,0.0,0.0,89,0.00,,,0.00,weatherlink.com 1.10,2013-01-16 08:04:00,
2013-01-16 02:19:00,17.9,16.0,30.13,NNE,24,0.0,1.0,90,0.00,,,0.00,weatherlink.com 1.10,2013-01-16 08:19:00,
2013-01-16 02:34:00,18.4,16.0,30.12,NNE,24,2.0,2.0,90,0.00,,,0.00,weatherlink.com 1.10,2013-01-16 08:34:00,
2013-01-16 02:49:00,18.4,16.0,30.12,NNE,24,1.0,2.0,90,0.00,,,0.00,weatherlink.com 1.10,2013-01-16 08:49:00,
2013-01-16 03:04:00,18.9,17.0,30.12,NNE,24,1.0,2.0,90,0.00,,,0.00,weatherlink.com 1.10,2013-01-16 09:04:00,
2013-01-16 03:19:00,19.7,17.0,30.11,NNE,21,1.0,1.0,90,0.00,,,0.00,weatherlink.com 1.10,2013-01-16 09:19:00,
2013-01-16 03:34:00,20.7,19.0,30.11,NNE,21,1.0,2.0,91,0.00,,,0.00,weatherlink.com 1.10,2013-01-16 09:34:00,
2013-01-16 03:49:00,21.0,19.0,30.09,North,349,1.0,3.0,90,0.00,,,0.00,weatherlink.com 1.10,2013-01-16 09:49:00,
2013-01-16 04:04:00,20.9,19.0,30.09,NNW,345,1.0,2.0,90,0.00,,,0.00,weatherlink.com 1.10,2013-01-16 10:04:00,
2013-01-16 04:19:00,20.8,18.0,30.08,NNW,345,0.0,1.0,90,0.00,,,0.00,weatherlink.com 1.10,2013-01-16 10:19:00,
2013-01-16 04:38:00,20.8,18.0,30.07,NNW,345,0.0,0.0,90,0.00,,,0.00,weatherlink.com 1.10,2013-01-16 10:38:00,
2013-01-16 04:49:00,20.7,18.0,30.06,WNW,298,1.0,2.0,90,0.00,,,0.00,weatherlink.com 1.10,2013-01-16 10:49:00,
2013-01-16 05:04:00,20.3,18.0,30.07,WNW,284,0.0,2.0,89,0.00,,,0.00,weatherlink.com 1.10,2013-01-16 11:04:00,
2013-01-16 05:19:00,19.7,17.0,30.06,West,267,0.0,1.0,89,0.00,,,0.00,weatherlink.com 1.10,2013-01-16 11:19:00,
2013-01-16 05:34:00,19.1,16.0,30.05,West,274,0.0,2.0,89,0.00,,,0.00,weatherlink.com 1.10,2013-01-16 11:34:00,
2013-01-16 05:49:00,19.1,16.0,30.05,West,278,0.0,3.0,89,0.00,,,0.00,weatherlink.com 1.10,2013-01-16 11:49:00,
2013-01-16 06:04:00,19.3,17.0,30.04,West,278,1.0,2.0,90,0.00,,,0.00,weatherlink.com 1.10,2013-01-16 12:04:00,
2013-01-16 06:19:00,18.5,16.0,30.05,West,259,1.0,3.0,88,0.00,,,0.00,weatherlink.com 1.10,2013-01-16 12:19:00,
2013-01-16 06:34:00,17.4,15.0,30.04,West,259,1.0,2.0,88,0.00,,,0.00,weatherlink.com 1.10,2013-01-16 12:34:00,
2013-01-16 06:49:00,17.5,15.0,30.04,West,259,1.0,2.0,89,0.00,,,0.00,weatherlink.com 1.10,2013-01-16 12:49:00,
2013-01-16 07:04:00,17.6,15.0,30.04,West,261,1.0,2.0,89,0.00,,,0.00,weatherlink.com 1.10,2013-01-16 13:04:00,
2013-01-16 07:19:00,17.3,15.0,30.05,West,262,0.0,2.0,89,0.00,,,0.00,weatherlink.com 1.10,2013-01-16 13:19:00,
2013-01-16 07:34:00,18.0,16.0,30.05,West,261,2.0,5.0,90,0.00,,,0.00,weatherlink.com 1.10,2013-01-16 13:34:00,
2013-01-16 07:49:00,18.6,16.0,30.05,WSW,257,2.0,3.0,89,0.00,,,0.00,weatherlink.com 1.10,2013-01-16 13:49:00,
2013-01-16 08:04:00,20.9,19.0,30.05,SW,236,4.0,6.0,90,0.00,,,0.00,weatherlink.com 1.10,2013-01-16 14:04:00,
2013-01-16 08:19:00,22.5,20.0,30.05,WSW,237,4.0,8.0,89,0.00,,,0.00,weatherlink.com 1.10,2013-01-16 14:19:00,
2013-01-16 08:34:00,23.7,21.0,30.06,WSW,249,8.0,10.0,88,0.00,,,0.00,weatherlink.com 1.10,2013-01-16 14:34:00,
2013-01-16 08:53:00,24.8,22.0,30.06,WSW,244,10.0,12.0,87,0.00,,,0.00,weatherlink.com 1.10,2013-01-16 14:53:00,
2013-01-16 09:05:00,25.6,22.0,30.06,WSW,250,12.0,14.0,85,0.00,,,0.00,weatherlink.com 1.10,2013-01-16 15:05:00,
2013-01-16 09:20:00,26.3,22.0,30.06,WSW,258,10.0,15.0,84,0.00,,,0.00,weatherlink.com 1.10,2013-01-16 15:20:00,
2013-01-16 09:35:00,27.2,23.0,30.05,West,273,10.0,18.0,83,0.00,,,0.00,weatherlink.com 1.10,2013-01-16 15:35:00,
2013-01-16 09:50:00,27.8,22.0,30.04,WSW,254,11.0,15.0,80,0.00,,,0.00,weatherlink.com 1.10,2013-01-16 15:50:00,
2013-01-16 10:05:00,28.3,22.0,30.03,WSW,243,11.0,15.0,78,0.00,,,0.00,weatherlink.com 1.10,2013-01-16 16:05:00,
2013-01-16 10:20:00,28.9,21.0,30.02,WSW,241,12.0,16.0,73,0.00,,,0.00,weatherlink.com 1.10,2013-01-16 16:20:00,
2013-01-16 10:35:00,29.5,21.0,30.01,WSW,253,13.0,18.0,71,0.00,,,0.00,weatherlink.com 1.10,2013-01-16 16:35:00,
2013-01-16 10:50:00,30.3,20.0,30.01,WSW,247,13.0,16.0,67,0.00,,,0.00,weatherlink.com 1.10,2013-01-16 16:50:00,
2013-01-16 11:08:00,31.2,22.0,30.00,WSW,241,6.0,16.0,68,0.00,,,0.00,weatherlink.com 1.10,2013-01-16 17:08:00,
2013-01-16 11:20:00,32.2,22.0,29.98,WSW,240,11.0,17.0,66,0.00,,,0.00,weatherlink.com 1.10,2013-01-16 17:20:00,
2013-01-16 11:35:00,32.2,22.0,29.98,WSW,239,12.0,17.0,65,0.00,,,0.00,weatherlink.com 1.10,2013-01-16 17:35:00,
2013-01-16 11:50:00,33.1,22.0,29.98,WSW,237,12.0,18.0,64,0.00,,,0.00,weatherlink.com 1.10,2013-01-16 17:50:00,
2013-01-16 12:05:00,33.9,22.0,29.97,WSW,257,10.0,17.0,63,0.00,,,0.00,weatherlink.com 1.10,2013-01-16 18:05:00,
2013-01-16 12:20:00,34.3,22.0,29.96,WSW,246,16.0,20.0,62,0.00,,,0.00,weatherlink.com 1.10,2013-01-16 18:20:00,
2013-01-16 12:38:00,34.4,22.0,29.95,WSW,250,17.0,18.0,62,0.00,,,0.00,weatherlink.com 1.10,2013-01-16 18:38:00,
2013-01-16 12:50:00,34.7,23.0,29.95,SW,234,13.0,19.0,62,0.00,,,0.00,weatherlink.com 1.10,2013-01-16 18:50:00,
2013-01-16 13:05:00,34.9,23.0,29.95,SW,229,13.0,19.0,62,0.00,,,0.00,weatherlink.com 1.10,2013-01-16 19:05:00,
2013-01-16 13:20:00,35.5,23.0,29.94,SW,227,17.0,22.0,61,0.00,,,0.00,weatherlink.com 1.10,2013-01-16 19:20:00,
2013-01-16 13:35:00,35.6,24.0,29.93,WSW,250,16.0,22.0,63,0.00,,,0.00,weatherlink.com 1.10,2013-01-16 19:35:00,
2013-01-16 13:50:00,35.8,24.0,29.92,West,269,16.0,24.0,63,0.00,,,0.00,weatherlink.com 1.10,2013-01-16 19:50:00,
2013-01-16 14:05:00,36.3,25.0,29.92,WSW,249,12.0,19.0,65,0.00,,,0.00,weatherlink.com 1.10,2013-01-16 20:05:00,
2013-01-16 14:20:00,36.1,24.0,29.91,WSW,256,17.0,23.0,62,0.00,,,0.00,weatherlink.com 1.10,2013-01-16 20:20:00,
2013-01-16 14:35:00,36.3,26.0,29.92,WSW,245,14.0,17.0,67,0.00,,,0.00,weatherlink.com 1.10,2013-01-16 20:35:00,
2013-01-16 14:53:00,36.1,25.0,29.92,WSW,248,20.0,25.0,65,0.00,,,0.00,weatherlink.com 1.10,2013-01-16 20:53:00,
2013-01-16 15:06:00,36.1,26.0,29.93,WSW,240,16.0,20.0,67,0.00,,,0.00,weatherlink.com 1.10,2013-01-16 21:06:00,
2013-01-16 15:21:00,36.1,26.0,29.93,WSW,246,14.0,18.0,67,0.00,,,0.00,weatherlink.com 1.10,2013-01-16 21:21:00,
2013-01-16 15:36:00,36.1,26.0,29.94,WSW,249,17.0,21.0,67,0.00,,,0.00,weatherlink.com 1.10,2013-01-16 21:36:00,
2013-01-16 15:51:00,35.5,26.0,29.96,WSW,247,11.0,18.0,69,0.00,,,0.00,weatherlink.com 1.10,2013-01-16 21:51:00,
2013-01-16 16:06:00,35.5,26.0,29.96,NW,309,10.0,19.0,69,0.00,,,0.00,weatherlink.com 1.10,2013-01-16 22:06:00,
2013-01-16 16:21:00,35.3,27.0,29.97,West,259,11.0,18.0,71,0.00,,,0.00,weatherlink.com 1.10,2013-01-16 22:21:00,
2013-01-16 16:36:00,35.1,27.0,29.97,WSW,246,10.0,15.0,72,0.00,,,0.00,weatherlink.com 1.10,2013-01-16 22:36:00,
2013-01-16 16:51:00,35.2,27.0,29.97,WSW,246,17.0,19.0,73,0.00,,,0.00,weatherlink.com 1.10,2013-01-16 22:51:00,
2013-01-16 17:06:00,35.1,27.0,29.97,WSW,246,11.0,17.0,73,0.00,,,0.00,weatherlink.com 1.10,2013-01-16 23:06:00,
2013-01-16 17:23:00,35.0,28.0,29.98,WSW,254,11.0,16.0,74,0.00,,,0.00,weatherlink.com 1.10,2013-01-16 23:23:00,
2013-01-16 17:36:00,35.0,28.0,29.98,WSW,256,8.0,19.0,75,0.00,,,0.00,weatherlink.com 1.10,2013-01-16 23:36:00,
2013-01-16 17:51:00,35.0,28.0,29.99,WSW,254,12.0,17.0,74,0.00,,,0.00,weatherlink.com 1.10,2013-01-16 23:51:00,
2013-01-16 18:06:00,35.0,28.0,30.00,WSW,254,9.0,15.0,75,0.00,,,0.00,weatherlink.com 1.10,2013-01-17 00:06:00,
2013-01-16 18:36:00,34.7,28.0,30.00,WSW,254,7.0,15.0,76,0.00,,,0.00,weatherlink.com 1.10,2013-01-17 00:36:00,
2013-01-16 18:51:00,34.6,28.0,30.02,West,274,5.0,14.0,77,0.00,,,0.00,weatherlink.com 1.10,2013-01-17 00:51:00,
2013-01-16 19:06:00,34.4,28.0,30.02,WSW,253,6.0,12.0,78,0.00,,,0.00,weatherlink.com 1.10,2013-01-17 01:06:00,
2013-01-16 19:21:00,34.6,28.0,30.02,WSW,256,10.0,15.0,77,0.00,,,0.00,weatherlink.com 1.10,2013-01-17 01:21:00,
2013-01-16 19:36:00,34.5,28.0,30.02,WSW,256,9.0,17.0,76,0.00,,,0.00,weatherlink.com 1.10,2013-01-17 01:36:00,
2013-01-16 19:51:00,34.4,28.0,30.03,WNW,282,7.0,13.0,76,0.00,,,0.00,weatherlink.com 1.10,2013-01-17 01:51:00,
2013-01-16 20:06:00,34.1,28.0,30.04,WSW,255,7.0,13.0,77,0.00,,,0.00,weatherlink.com 1.10,2013-01-17 02:06:00,
2013-01-16 20:21:00,33.5,27.0,30.05,West,263,3.0,10.0,78,0.00,,,0.00,weatherlink.com 1.10,2013-01-17 02:21:00,
2013-01-16 20:36:00,32.9,27.0,30.05,West,259,4.0,9.0,79,0.00,,,0.00,weatherlink.com 1.10,2013-01-17 02:36:00,
2013-01-16 20:53:00,32.7,27.0,30.06,WSW,252,6.0,10.0,80,0.00,,,0.00,weatherlink.com 1.10,2013-01-17 02:53:00,
2013-01-16 21:06:00,32.4,27.0,30.05,West,268,7.0,10.0,81,0.00,,,0.00,weatherlink.com 1.10,2013-01-17 03:06:00,
2013-01-16 21:21:00,32.3,29.0,30.05,WSW,253,5.0,8.0,87,0.00,,,0.00,weatherlink.com 1.10,2013-01-17 03:21:00,
2013-01-16 21:36:00,31.7,27.0,30.05,West,259,6.0,6.0,82,0.00,,,0.00,weatherlink.com 1.10,2013-01-17 03:36:00,
2013-01-16 21:51:00,31.2,27.0,30.05,WSW,257,2.0,5.0,83,0.00,,,0.00,weatherlink.com 1.10,2013-01-17 03:51:00,
2013-01-16 22:06:00,30.8,27.0,30.06,West,263,2.0,6.0,84,0.00,,,0.00,weatherlink.com 1.10,2013-01-17 04:06:00,
2013-01-16 22:21:00,31.2,27.0,30.06,WSW,255,4.0,6.0,85,0.00,,,0.00,weatherlink.com 1.10,2013-01-17 04:21:00,
2013-01-16 22:36:00,32.2,28.0,30.06,WSW,248,5.0,8.0,84,0.00,,,0.00,weatherlink.com 1.10,2013-01-17 04:36:00,
2013-01-16 22:51:00,32.4,28.0,30.06,WSW,253,6.0,8.0,83,0.00,,,0.00,weatherlink.com 1.10,2013-01-17 04:51:00,
2013-01-16 23:06:00,32.6,28.0,30.06,WSW,258,6.0,8.0,82,0.00,,,0.00,weatherlink.com 1.10,2013-01-17 05:06:00,
2013-01-16 23:21:00,31.7,27.0,30.06,West,263,3.0,6.0,82,0.00,,,0.00,weatherlink.com 1.10,2013-01-17 05:21:00,
2013-01-16 23:36:00,31.0,26.0,30.06,West,263,4.0,6.0,83,0.00,,,0.00,weatherlink.com 1.10,2013-01-17 05:36:00,
2013-01-16 23:51:00,30.5,26.0,30.06,WSW,257,4.0,5.0,84,0.00,,,0.00,weatherlink.com 1.10,2013-01-17 05:51:00,